Time;durP1;ratioP1;P1;durP2;ratioP2;P2;SDS_P1;SDS_P2;PMS_P1;PMS_P2;Temp;Humidity;BMP_temperature;BMP_pressure;BME280_temperature;BME280_humidity;BME280_pressure;Samples;Min_cycle;Max_cycle;Signal;HPM_P1;HPM_P2
2023/02/25 00:00:18;;;;;;;25.50;14.55;;;3.00;99.90;;;;;;6152912;23;20049;-87
2023/02/25 00:03:25;;;;;;;25.70;13.68;;;2.90;99.90;;;;;;6152072;23;20097;-87
2023/02/25 00:06:13;;;;;;;30.58;15.35;;;2.90;99.90;;;;;;6235606;22;20029;-87
2023/02/25 00:09:00;;;;;;;25.88;14.30;;;2.80;99.90;;;;;;6152256;22;20044;-89
2023/02/25 00:11:48;;;;;;;27.27;14.85;;;2.80;99.90;;;;;;6153419;23;20455;-87
2023/02/25 00:14:36;;;;;;;29.02;15.00;;;2.80;99.90;;;;;;6148330;23;20098;-86
2023/02/25 00:17:26;;;;;;;34.58;15.90;;;2.80;99.90;;;;;;6149762;23;20022;-87
2023/02/25 00:20:13;;;;;;;31.52;15.60;;;2.80;99.90;;;;;;6152635;23;20079;-87
2023/02/25 00:23:00;;;;;;;32.92;14.70;;;2.80;99.90;;;;;;6214062;22;20036;-87
2023/02/25 00:26:04;;;;;;;36.15;16.63;;;2.80;99.90;;;;;;6153447;23;20108;-87
2023/02/25 00:28:53;;;;;;;35.92;15.60;;;2.70;99.90;;;;;;6151087;23;20034;-86
2023/02/25 00:31:41;;;;;;;33.33;16.58;;;2.70;99.90;;;;;;6162927;22;20021;-87
2023/02/25 00:34:30;;;;;;;33.65;16.73;;;2.80;99.90;;;;;;6152449;23;20332;-87
2023/02/25 00:37:18;;;;;;;36.97;17.80;;;2.80;99.90;;;;;;6153695;23;20052;-87
2023/02/25 00:40:13;;;;;;;30.75;15.65;;;2.80;99.90;;;;;;6152129;23;20021;-87
2023/02/25 00:43:03;;;;;;;33.00;16.50;;;2.90;99.90;;;;;;6237683;22;20053;-87
2023/02/25 00:45:50;;;;;;;37.67;17.33;;;2.90;99.90;;;;;;6239537;22;20029;-88
2023/02/25 00:48:41;;;;;;;34.08;18.40;;;2.90;99.90;;;;;;6154440;23;20033;-88
2023/02/25 00:51:30;;;;;;;34.97;16.63;;;2.90;99.90;;;;;;6154503;23;20032;-85
2023/02/25 00:54:20;;;;;;;32.13;16.48;;;2.90;99.90;;;;;;6235906;22;20397;-86
2023/02/25 00:57:10;;;;;;;37.20;17.88;;;2.90;99.90;;;;;;6237848;22;20083;-86
2023/02/25 00:59:57;;;;;;;40.85;17.17;;;2.90;99.90;;;;;;6153980;23;20033;-87
2023/02/25 01:02:45;;;;;;;37.65;18.20;;;2.90;99.90;;;;;;6153433;23;20111;-88
2023/02/25 01:05:32;;;;;;;38.80;18.30;;;2.90;99.90;;;;;;6237772;22;20109;-86
2023/02/25 01:08:19;;;;;;;40.00;16.75;;;2.90;99.90;;;;;;6151851;23;20026;-86
2023/02/25 01:11:27;;;;;;;32.17;16.80;;;2.90;99.90;;;;;;6151999;23;20159;-86
2023/02/25 01:14:24;;;;;;;37.97;15.93;;;2.90;99.90;;;;;;6237996;22;20036;-88
2023/02/25 01:17:11;;;;;;;35.47;16.63;;;2.90;99.90;;;;;;6238657;22;20026;-87
2023/02/25 01:19:58;;;;;;;32.65;16.50;;;2.90;99.90;;;;;;6156292;23;20055;-86
2023/02/25 01:22:47;;;;;;;36.45;16.75;;;2.90;99.90;;;;;;6250215;22;20021;-87
2023/02/25 01:25:48;;;;;;;40.83;16.42;;;3.00;99.90;;;;;;6154341;23;20032;-87
2023/02/25 01:28:35;;;;;;;32.38;16.30;;;3.00;99.90;;;;;;6150825;23;20333;-87
2023/02/25 01:31:28;;;;;;;38.80;16.17;;;3.00;99.90;;;;;;6237086;22;20040;-88
2023/02/25 01:34:17;;;;;;;35.92;15.75;;;3.00;99.90;;;;;;6234442;22;20079;-86
2023/02/25 01:37:08;;;;;;;41.00;17.60;;;3.00;99.90;;;;;;6153145;23;20083;-87
2023/02/25 01:39:55;;;;;;;35.63;16.33;;;3.00;99.90;;;;;;6152856;23;20078;-87
2023/02/25 01:42:44;;;;;;;33.63;15.48;;;2.90;99.90;;;;;;6150890;23;20025;-86
2023/02/25 01:45:31;;;;;;;32.53;16.05;;;2.90;99.90;;;;;;6151836;23;20056;-84
2023/02/25 01:48:22;;;;;;;33.83;15.35;;;2.90;99.90;;;;;;6153799;22;20030;-87
2023/02/25 01:51:13;;;;;;;34.53;16.02;;;2.90;99.90;;;;;;6161103;23;20078;-88
2023/02/25 01:54:06;;;;;;;38.55;16.48;;;2.90;99.90;;;;;;6169514;23;20049;-87
2023/02/25 01:56:54;;;;;;;;;;;2.90;99.90;;;;;;6255192;22;20021;-86
2023/02/25 01:59:42;;;;;;;33.53;16.23;;;2.90;99.90;;;;;;6250504;22;19974;-87
2023/02/25 02:02:32;;;;;;;32.65;15.43;;;2.90;99.90;;;;;;6154812;23;20025;-87
2023/02/25 02:05:28;;;;;;;29.33;14.98;;;2.80;99.90;;;;;;6218921;22;20061;-87
2023/02/25 02:08:16;;;;;;;35.47;15.57;;;2.80;99.90;;;;;;6236700;22;20045;-87
2023/02/25 02:11:08;;;;;;;32.42;15.20;;;2.70;99.90;;;;;;6163037;23;20424;-85
2023/02/25 02:13:57;;;;;;;35.42;15.82;;;2.70;99.90;;;;;;6153654;23;20032;-86
2023/02/25 02:16:56;;;;;;;32.42;15.55;;;2.70;99.90;;;;;;6150948;23;20313;-88
2023/02/25 02:19:48;;;;;;;34.30;15.30;;;2.60;99.90;;;;;;6235574;22;20037;-89
2023/02/25 02:22:55;;;;;;;34.83;15.30;;;2.60;99.90;;;;;;6153592;23;20033;-87
2023/02/25 02:26:20;;;;;;;35.80;14.38;;;2.60;99.90;;;;;;6154685;23;20041;-88
2023/02/25 02:29:22;;;;;;;29.38;14.85;;;2.60;99.90;;;;;;6236705;22;20075;-88
2023/02/25 02:32:33;;;;;;;32.10;15.38;;;2.60;99.90;;;;;;6164957;22;20034;-86
2023/02/25 02:35:56;;;;;;;34.85;15.32;;;2.60;99.90;;;;;;6159956;23;20305;-88
2023/02/25 02:39:03;;;;;;;33.25;15.10;;;2.60;99.90;;;;;;6240958;22;20060;-87
2023/02/25 02:42:22;;;;;;;35.38;14.43;;;2.50;99.90;;;;;;6151832;23;20057;-88
2023/02/25 02:45:15;;;;;;;40.22;15.30;;;2.50;99.90;;;;;;6185440;22;20131;-87
2023/02/25 02:48:08;;;;;;;39.92;15.93;;;2.50;99.90;;;;;;6152562;23;20026;-86
2023/02/25 02:51:04;;;;;;;32.47;15.45;;;2.50;99.90;;;;;;6150583;23;20025;-86
2023/02/25 02:54:00;;;;;;;34.85;14.73;;;2.40;99.90;;;;;;6235386;22;20457;-90
2023/02/25 02:56:55;;;;;;;32.70;15.35;;;2.40;99.90;;;;;;6235191;22;20619;-87
2023/02/25 03:00:16;;;;;;;30.08;15.88;;;2.40;99.90;;;;;;6162254;22;20005;-87
2023/02/25 03:03:16;;;;;;;49.03;14.80;;;2.30;99.90;;;;;;6236691;22;20021;-86
2023/02/25 03:06:22;;;;;;;35.13;14.25;;;2.20;99.90;;;;;;6237261;22;20041;-85
2023/02/25 03:09:25;;;;;;;31.00;13.98;;;2.10;99.90;;;;;;6153128;23;20022;-89
2023/02/25 03:12:12;;;;;;;36.40;13.97;;;2.00;99.90;;;;;;6153138;23;20025;-87
2023/02/25 03:14:59;;;;;;;29.85;13.85;;;1.90;99.90;;;;;;6154048;23;20273;-86
2023/02/25 03:17:56;;;;;;;34.10;14.48;;;1.80;99.90;;;;;;6153246;23;20051;-89
2023/02/25 03:20:48;;;;;;;31.73;13.13;;;1.80;99.90;;;;;;6153406;23;20029;-85
2023/02/25 03:23:40;;;;;;;39.35;12.88;;;1.80;99.90;;;;;;6235724;22;20036;-87
2023/02/25 03:26:31;;;;;;;32.10;13.32;;;1.80;99.90;;;;;;6234083;22;20469;-85
2023/02/25 03:29:27;;;;;;;32.92;14.07;;;1.70;99.90;;;;;;6151015;23;20040;-86
2023/02/25 03:32:17;;;;;;;31.33;13.65;;;1.80;99.90;;;;;;6153536;23;20037;-88
2023/02/25 03:35:08;;;;;;;30.98;13.65;;;1.80;99.90;;;;;;6235102;22;20429;-87
2023/02/25 03:38:06;;;;;;;31.85;12.80;;;1.80;99.90;;;;;;6236922;22;20025;-86
2023/02/25 03:41:00;;;;;;;22.70;12.13;;;1.90;99.90;;;;;;6236842;22;20040;-85
2023/02/25 03:43:56;;;;;;;30.70;13.70;;;1.90;99.90;;;;;;6151411;23;20027;-87
2023/02/25 03:46:46;;;;;;;31.10;14.07;;;1.90;99.90;;;;;;6153208;23;20114;-84
2023/02/25 03:49:42;;;;;;;29.23;12.40;;;1.90;99.90;;;;;;6245571;22;20081;-86
2023/02/25 03:52:32;;;;;;;23.55;11.98;;;1.90;99.90;;;;;;6231599;22;20443;-84
2023/02/25 03:55:19;;;;;;;32.88;12.98;;;1.90;99.90;;;;;;6236625;22;20044;-86
2023/02/25 03:58:08;;;;;;;27.30;12.65;;;1.90;99.90;;;;;;6238290;22;20025;-87
2023/02/25 04:01:01;;;;;;;25.95;12.38;;;1.90;99.90;;;;;;6236854;22;20026;-84
2023/02/25 04:03:49;;;;;;;33.15;13.20;;;1.90;99.90;;;;;;6153757;23;20030;-88
2023/02/25 04:06:37;;;;;;;36.03;14.25;;;1.90;99.90;;;;;;6237711;22;20025;-86
2023/02/25 04:09:27;;;;;;;34.63;14.82;;;2.00;99.90;;;;;;6216287;22;20033;-88
2023/02/25 04:12:14;;;;;;;32.97;13.00;;;1.90;99.90;;;;;;6238821;22;20029;-85
2023/02/25 04:15:05;;;;;;;36.40;14.43;;;2.00;99.90;;;;;;6236998;22;20044;-85
2023/02/25 04:17:52;;;;;;;34.85;14.32;;;2.00;99.90;;;;;;6239116;22;20030;-85
2023/02/25 04:20:40;;;;;;;35.45;14.63;;;2.00;99.90;;;;;;6236694;22;20030;-86
2023/02/25 04:23:31;;;;;;;35.30;14.63;;;2.00;99.90;;;;;;6154338;23;20026;-87
2023/02/25 04:26:22;;;;;;;31.38;15.57;;;2.10;99.90;;;;;;6235705;22;20037;-88
2023/02/25 04:29:15;;;;;;;32.05;14.30;;;2.10;99.90;;;;;;6151047;23;20083;-88
2023/02/25 04:32:03;;;;;;;26.13;11.95;;;2.00;99.90;;;;;;6151959;23;20026;-86
2023/02/25 04:34:51;;;;;;;24.40;10.75;;;2.00;99.90;;;;;;6151643;23;20029;-87
2023/02/25 04:37:40;;;;;;;25.30;10.00;;;2.00;99.90;;;;;;6159843;23;20021;-85
2023/02/25 04:40:27;;;;;;;21.40;8.43;;;1.90;99.90;;;;;;6242921;22;20029;-86
2023/02/25 04:43:15;;;;;;;20.35;7.68;;;1.90;99.90;;;;;;6240399;22;20041;-87
2023/02/25 04:46:02;;;;;;;14.05;5.75;;;1.80;99.90;;;;;;6156704;22;20033;-86
2023/02/25 04:48:49;;;;;;;18.23;5.65;;;1.80;99.90;;;;;;6242097;22;20025;-88
2023/02/25 04:51:38;;;;;;;11.93;4.63;;;1.70;99.90;;;;;;6155776;22;20021;-88
2023/02/25 04:54:29;;;;;;;19.75;4.25;;;1.60;99.90;;;;;;6157007;22;20113;-87
2023/02/25 04:57:17;;;;;;;10.27;3.70;;;1.50;99.90;;;;;;6241828;22;20021;-87
2023/02/25 05:00:08;;;;;;;13.15;3.20;;;1.50;99.90;;;;;;6237850;22;20241;-86
2023/02/25 05:06:33;;;;;;;9.07;3.38;;;1.40;99.90;;;;;;6156617;23;20146;-88
2023/02/25 05:09:22;;;;;;;16.83;3.33;;;1.40;99.90;;;;;;6155744;23;20025;-85
2023/02/25 05:12:13;;;;;;;10.45;3.67;;;1.40;99.90;;;;;;6250365;22;20108;-86
2023/02/25 05:15:04;;;;;;;12.27;3.63;;;1.30;99.90;;;;;;6257687;22;20029;-86
2023/02/25 05:17:51;;;;;;;10.82;3.05;;;1.40;99.90;;;;;;6169349;23;20033;-87
2023/02/25 05:20:43;;;;;;;16.33;3.30;;;1.40;99.90;;;;;;6159097;23;20046;-88
2023/02/25 05:23:35;;;;;;;7.22;3.03;;;1.30;71.60;;;;;;6158672;23;20021;-87
2023/02/25 05:26:23;;;;;;;14.15;3.47;;;1.40;1.10;;;;;;6164244;23;20056;-87
2023/02/25 05:29:13;;;;;;;14.98;3.53;;;1.30;1.00;;;;;;6250164;22;20125;-86
2023/02/25 05:32:02;;;;;;;10.18;3.65;;;1.30;1.00;;;;;;6245491;22;20041;-85
2023/02/25 05:34:50;;;;;;;10.73;3.35;;;1.20;99.90;;;;;;6159357;22;20097;-87
2023/02/25 05:37:37;;;;;;;16.38;4.10;;;1.10;99.90;;;;;;6248701;22;20029;-86
2023/02/25 05:40:24;;;;;;;10.23;3.58;;;1.10;99.90;;;;;;6160343;23;20691;-86
2023/02/25 05:43:17;;;;;;;14.68;4.40;;;1.10;99.90;;;;;;6162677;23;20416;-87
2023/02/25 05:46:07;;;;;;;10.55;3.90;;;1.10;99.90;;;;;;6155965;23;20064;-85
2023/02/25 05:48:55;;;;;;;8.40;3.72;;;1.10;99.90;;;;;;6152700;23;20033;-85
2023/02/25 05:51:44;;;;;;;9.48;3.33;;;1.10;1.00;;;;;;6239375;22;20087;-85
2023/02/25 05:54:31;;;;;;;9.73;3.50;;;1.10;99.90;;;;;;6156946;22;20321;-86
2023/02/25 05:57:22;;;;;;;7.90;3.05;;;1.10;1.00;;;;;;6168419;22;20407;-86
2023/02/25 06:00:13;;;;;;;12.88;3.45;;;1.00;90.80;;;;;;6167665;23;20329;-86
2023/02/25 06:03:01;;;;;;;7.97;3.20;;;1.00;1.00;;;;;;6170765;22;20040;-83
2023/02/25 06:05:51;;;;;;;15.18;3.20;;;1.00;1.00;;;;;;6175653;22;20030;-84
2023/02/25 06:08:41;;;;;;;10.35;3.25;;;1.00;1.00;;;;;;6169581;22;20026;-88
2023/02/25 06:11:29;;;;;;;13.48;3.78;;;1.00;1.00;;;;;;6163764;23;20278;-86
2023/02/25 06:14:16;;;;;;;11.00;2.97;;;1.00;99.90;;;;;;6254248;22;20121;-85
2023/02/25 06:17:03;;;;;;;7.45;2.97;;;1.00;99.90;;;;;;6166788;23;20026;-85
2023/02/25 06:19:52;;;;;;;13.65;3.40;;;0.90;99.90;;;;;;6158154;22;20037;-87
2023/02/25 06:22:39;;;;;;;9.77;3.60;;;1.00;99.90;;;;;;6154100;23;20070;-86
2023/02/25 06:25:29;;;;;;;14.00;3.72;;;1.00;99.90;;;;;;6238628;22;20138;-87
2023/02/25 06:28:17;;;;;;;7.70;3.47;;;1.00;99.90;;;;;;6151386;23;20025;-86
2023/02/25 06:31:18;;;;;;;15.40;3.45;;;1.10;1.00;;;;;;6237618;22;20040;-87
2023/02/25 06:34:05;;;;;;;11.25;3.45;;;1.10;99.90;;;;;;6237433;22;20033;-85
2023/02/25 06:36:54;;;;;;;15.95;3.05;;;1.20;99.90;;;;;;6151420;23;20026;-85
2023/02/25 06:39:42;;;;;;;8.00;2.75;;;1.20;1.00;;;;;;6152753;22;20026;-84
2023/02/25 06:42:29;;;;;;;8.48;2.95;;;1.30;1.00;;;;;;6153733;22;20033;-85
2023/02/25 06:45:17;;;;;;;9.85;2.92;;;1.40;99.90;;;;;;6240469;22;20022;-84
2023/02/25 06:48:05;;;;;;;9.38;2.83;;;1.40;1.00;;;;;;6153807;23;20044;-86
2023/02/25 06:50:52;;;;;;;8.20;2.65;;;1.50;90.50;;;;;;6150871;23;20025;-86
2023/02/25 06:53:44;;;;;;;14.15;2.53;;;1.50;1.00;;;;;;6152483;23;20087;-85
2023/02/25 06:56:31;;;;;;;9.70;2.30;;;1.50;1.00;;;;;;6152819;22;20026;-85
2023/02/25 06:59:18;;;;;;;8.15;2.35;;;1.60;99.90;;;;;;6153707;22;20030;-85
2023/02/25 07:02:08;;;;;;;9.38;2.58;;;1.70;99.90;;;;;;6239335;22;20407;-83
2023/02/25 07:04:56;;;;;;;9.70;2.95;;;1.90;1.00;;;;;;6153165;23;20400;-85
2023/02/25 07:07:43;;;;;;;8.15;2.70;;;1.90;99.90;;;;;;6245499;22;20025;-85
2023/02/25 07:10:31;;;;;;;7.88;2.80;;;2.10;99.90;;;;;;6236658;22;20038;-85
2023/02/25 07:13:18;;;;;;;9.07;2.78;;;2.30;7.00;;;;;;6239523;22;20044;-84
2023/02/25 07:16:36;;;;;;;8.25;2.30;;;2.40;1.00;;;;;;6238475;22;20057;-84
2023/02/25 07:20:43;;;;;;;;;;;;;;;;;;;;;
2023/02/25 07:28:38;;;;;;;6.07;2.67;;;2.80;1.00;;;;;;6169818;23;20014;-84
2023/02/25 07:32:20;;;;;;;8.40;3.00;;;2.80;1.00;;;;;;6215742;23;20128;-84
2023/02/25 07:35:53;;;;;;;8.55;2.55;;;2.40;99.90;;;;;;5990169;23;20108;-84
2023/02/25 07:39:19;;;;;;;8.35;2.50;;;2.20;99.90;;;;;;6212340;23;20056;-83
2023/02/25 07:42:34;;;;;;;5.45;2.42;;;2.00;99.90;;;;;;6195768;23;20024;-84
2023/02/25 07:45:30;;;;;;;8.30;2.20;;;2.20;99.90;;;;;;6192539;23;20024;-84
2023/02/25 07:48:53;;;;;;;6.63;2.03;;;2.40;99.90;;;;;;6183581;23;20024;-84
2023/02/25 07:52:48;;;;;;;;;;;;;;;;;;;;;
2023/02/25 07:59:05;;;;;;;1.83;1.35;;;4.40;99.90;;;;;;6339954;22;20101;-85
2023/02/25 08:02:00;;;;;;;5.43;1.63;;;4.90;99.90;;;;;;6336069;22;20022;-86
2023/02/25 08:09:14;;;;;;;5.15;2.15;;;4.70;48.50;;;;;;6343989;22;20027;-86
2023/02/25 08:12:40;;;;;;;5.15;2.20;;;4.70;1.00;;;;;;6337691;22;20010;-84
2023/02/25 08:16:02;;;;;;;5.05;2.17;;;4.80;1.00;;;;;;6336414;22;20018;-85
2023/02/25 08:18:56;;;;;;;6.28;2.25;;;5.10;1.00;;;;;;6326254;22;20019;-85
2023/02/25 08:21:47;;;;;;;7.55;2.60;;;5.10;1.00;;;;;;6318772;22;20018;-83
2023/02/25 08:24:51;;;;;;;7.53;2.67;;;5.20;1.00;;;;;;6321539;22;20023;-84
2023/02/25 08:32:19;;;;;;;7.93;2.00;;;5.90;1.00;;;;;;6215248;23;20036;-84
2023/02/25 08:35:11;;;;;;;5.75;2.00;;;6.20;99.90;;;;;;6270823;22;20113;-85
2023/02/25 08:38:08;;;;;;;;;;;;;;;;;;;;;
2023/02/25 08:41:18;;;;;;;2.47;1.63;;;5.70;99.90;;;;;;6336865;22;20084;-84
2023/02/25 08:44:09;;;;;;;8.93;1.85;;;5.30;99.90;;;;;;6319037;22;20030;-85
2023/02/25 08:46:58;;;;;;;6.68;1.92;;;4.90;99.90;;;;;;6325582;22;20388;-84
2023/02/25 08:49:52;;;;;;;7.85;2.05;;;4.50;99.90;;;;;;6316572;22;20042;-86
2023/02/25 08:52:47;;;;;;;10.48;2.20;;;4.40;99.90;;;;;;6315237;22;20082;-86
2023/02/25 08:55:46;;;;;;;7.65;2.55;;;4.10;99.90;;;;;;6317910;22;20437;-85
2023/02/25 08:58:38;;;;;;;7.55;3.33;;;3.80;1.00;;;;;;6318619;22;20080;-85
2023/02/25 09:01:48;;;;;;;7.15;3.47;;;3.70;1.00;;;;;;6318958;22;20023;-82
2023/02/25 09:04:41;;;;;;;8.15;3.35;;;3.60;1.00;;;;;;6287657;22;20023;-85
2023/02/25 09:07:39;;;;;;;7.32;3.22;;;3.70;1.00;;;;;;6320196;22;20030;-85
2023/02/25 09:18:52;;;;;;;5.40;2.83;;;3.90;1.00;;;;;;6308461;22;20033;-83
2023/02/25 09:22:32;;;;;;;;;;;;;;;;;;;;;
2023/02/25 09:25:36;;;;;;;6.75;2.30;;;4.30;1.00;;;;;;6341831;22;20031;-85
2023/02/25 09:29:06;;;;;;;10.43;3.00;;;4.50;1.00;;;;;;6255859;22;20349;-85
2023/02/25 09:32:41;;;;;;;11.30;2.60;;;4.70;1.00;;;;;;6324632;22;20023;-87
2023/02/25 09:35:55;;;;;;;;;;;;;;;;;;;;;
2023/02/25 09:38:58;;;;;;;6.47;2.35;;;6.40;99.90;;;;;;6242815;23;20447;-86
2023/02/25 10:07:19;;;;;;;3.58;1.45;;;7.60;99.90;;;;;;6187602;23;20410;-86
2023/02/25 10:11:13;;;;;;;7.57;1.90;;;6.90;99.90;;;;;;6071443;23;20422;-85
2023/02/25 10:18:45;;;;;;;3.63;1.40;;;7.20;99.90;;;;;;6175753;23;20260;-82
2023/02/25 10:22:38;;;;;;;3.08;1.00;;;7.70;99.90;;;;;;6160381;23;20037;-83
2023/02/25 10:25:55;;;;;;;2.15;0.93;;;8.10;99.90;;;;;;6175688;23;20096;-86
2023/02/25 10:29:27;;;;;;;4.60;1.45;;;8.40;99.90;;;;;;6164835;22;20476;-82
2023/02/25 10:32:39;;;;;;;2.55;1.13;;;8.30;99.90;;;;;;6252098;22;20222;-83
2023/02/25 10:39:34;;;;;;;4.45;1.63;;;7.60;99.90;;;;;;6275093;22;20117;-84
2023/02/25 10:42:39;;;;;;;6.15;1.88;;;6.90;99.90;;;;;;6321277;22;20306;-85
2023/02/25 10:49:36;;;;;;;;;;;6.00;99.90;;;;;;6311753;22;20023;-82
2023/02/25 11:14:00;;;;;;;3.90;1.98;;;5.90;99.90;;;;;;6107785;23;20083;-83
2023/02/25 11:17:26;;;;;;;;;;;6.40;99.90;;;;;;6042290;23;20035;-83
2023/02/25 11:21:04;;;;;;;;;;;;;;;;;;;;;
2023/02/25 11:24:37;;;;;;;7.35;1.67;;;9.20;99.90;;;;;;5867649;24;20112;-84
2023/02/25 11:27:35;;;;;;;3.00;1.45;;;9.70;99.90;;;;;;5867552;24;20038;-84
2023/02/25 11:30:34;;;;;;;6.00;1.75;;;9.20;99.90;;;;;;6065145;23;20053;-82
2023/02/25 11:33:30;;;;;;;6.97;1.40;;;8.70;99.90;;;;;;6069367;23;20168;-82
2023/02/25 11:36:23;;;;;;;4.28;1.45;;;8.20;99.90;;;;;;6070493;23;20044;-81
2023/02/25 11:39:14;;;;;;;3.50;1.98;;;7.60;99.90;;;;;;6068458;23;20026;-80
2023/02/25 11:42:21;;;;;;;3.28;1.58;;;7.00;98.20;;;;;;6069958;23;20026;-81
2023/02/25 11:45:16;;;;;;;6.90;1.67;;;6.90;99.90;;;;;;6081786;23;20076;-82
2023/02/25 11:48:16;;;;;;;6.60;1.55;;;7.00;99.90;;;;;;6071244;23;20038;-82
2023/02/25 11:51:18;;;;;;;3.40;1.40;;;7.20;99.90;;;;;;6072379;23;20042;-82
2023/02/25 11:54:27;;;;;;;4.60;1.75;;;7.00;98.50;;;;;;6071942;23;20076;-82
2023/02/25 11:57:39;;;;;;;6.35;1.95;;;7.00;99.60;;;;;;6113595;23;20029;-81
2023/02/25 12:00:50;;;;;;;3.30;1.40;;;6.70;99.90;;;;;;6181684;23;20028;-79
2023/02/25 12:03:54;;;;;;;3.63;1.48;;;6.70;99.90;;;;;;6181795;23;20033;-81
2023/02/25 12:07:19;;;;;;;2.40;1.50;;;6.60;99.90;;;;;;6181652;23;20025;-83
2023/02/25 12:10:41;;;;;;;3.97;1.70;;;6.60;99.90;;;;;;6190422;23;20304;-81
2023/02/25 12:13:47;;;;;;;11.07;1.90;;;6.50;99.90;;;;;;6180072;23;20025;-81
2023/02/25 12:17:13;;;;;;;5.45;1.58;;;6.20;99.90;;;;;;6181611;23;20237;-82
2023/02/25 12:20:25;;;;;;;5.05;1.60;;;6.10;99.90;;;;;;6182123;23;20021;-82
2023/02/25 12:23:24;;;;;;;2.10;1.42;;;6.10;99.90;;;;;;6180768;23;20100;-85
2023/02/25 12:26:29;;;;;;;4.80;1.50;;;6.00;99.90;;;;;;6185557;23;20044;-84
2023/02/25 12:29:38;;;;;;;6.68;2.17;;;5.80;99.90;;;;;;6185120;23;20028;-79
2023/02/25 12:32:40;;;;;;;5.95;1.80;;;5.60;99.90;;;;;;6190505;23;20031;-80
2023/02/25 12:35:48;;;;;;;4.38;1.52;;;5.60;99.90;;;;;;6190774;23;20029;-82
2023/02/25 12:39:09;;;;;;;6.47;2.20;;;5.70;99.90;;;;;;6185051;23;20032;-87
2023/02/25 12:42:01;;;;;;;4.25;1.80;;;5.90;99.90;;;;;;6183620;23;20025;-83
2023/02/25 12:45:28;;;;;;;3.22;1.70;;;5.90;99.90;;;;;;6182735;23;20025;-81
2023/02/25 12:48:27;;;;;;;4.13;1.77;;;5.90;99.90;;;;;;6183182;23;20021;-82
2023/02/25 12:51:33;;;;;;;2.60;1.40;;;5.70;99.90;;;;;;6179428;23;20036;-81
2023/02/25 12:54:52;;;;;;;6.55;2.10;;;5.70;99.90;;;;;;6183247;23;20446;-82
2023/02/25 12:58:21;;;;;;;6.43;1.90;;;5.80;99.90;;;;;;6183456;23;20029;-82
2023/02/25 13:01:18;;;;;;;3.63;2.20;;;6.00;99.90;;;;;;6191591;23;20044;-80
2023/02/25 13:04:27;;;;;;;4.57;1.98;;;6.10;99.90;;;;;;6184229;23;20024;-80
2023/02/25 13:07:40;;;;;;;5.18;1.88;;;6.00;99.90;;;;;;6180273;23;20032;-82
2023/02/25 13:11:00;;;;;;;7.43;2.10;;;5.60;99.90;;;;;;6188598;23;20029;-82
2023/02/25 13:14:11;;;;;;;9.32;2.03;;;5.40;99.90;;;;;;6179922;23;20039;-81
2023/02/25 13:17:19;;;;;;;7.18;2.30;;;5.20;99.90;;;;;;6179097;23;20052;-82
2023/02/25 13:20:29;;;;;;;10.05;2.22;;;5.00;99.90;;;;;;6179358;23;20036;-82
2023/02/25 13:23:42;;;;;;;5.70;2.30;;;4.80;99.90;;;;;;6189252;23;20025;-81
2023/02/25 13:26:48;;;;;;;7.68;2.42;;;4.70;99.90;;;;;;6191025;23;20025;-84
2023/02/25 13:29:45;;;;;;;5.65;1.98;;;4.60;99.90;;;;;;6183168;23;20029;-84
2023/02/25 13:32:57;;;;;;;12.13;2.20;;;4.50;99.90;;;;;;6180555;23;20025;-82
2023/02/25 13:36:12;;;;;;;2.22;1.67;;;4.40;99.90;;;;;;6180966;23;20040;-82
2023/02/25 13:39:23;;;;;;;14.63;4.72;;;4.30;99.90;;;;;;6183065;23;20420;-82
2023/02/25 13:42:54;;;;;;;4.15;1.77;;;4.20;99.90;;;;;;6182073;23;20028;-84
2023/02/25 13:45:49;;;;;;;6.55;1.90;;;3.80;99.90;;;;;;6182577;23;20021;-84
2023/02/25 13:48:58;;;;;;;7.63;2.13;;;3.60;99.90;;;;;;6182346;23;20082;-82
2023/02/25 13:52:26;;;;;;;4.68;1.67;;;3.50;99.90;;;;;;6182786;23;20026;-82
2023/02/25 13:55:23;;;;;;;6.72;2.10;;;3.50;99.90;;;;;;6183804;23;20044;-82
2023/02/25 13:58:37;;;;;;;6.40;2.30;;;3.60;99.90;;;;;;6182957;23;20025;-83
2023/02/25 14:02:07;;;;;;;6.40;1.95;;;3.60;99.90;;;;;;6305363;22;20022;-82
2023/02/25 14:05:28;;;;;;;7.05;1.75;;;3.70;99.90;;;;;;6316354;22;20360;-81
2023/02/25 14:08:31;;;;;;;4.60;1.73;;;3.80;99.90;;;;;;6280508;22;20027;-84
2023/02/25 14:11:44;;;;;;;3.38;1.92;;;3.90;99.90;;;;;;6317688;22;20030;-82
2023/02/25 14:15:13;;;;;;;5.72;1.90;;;4.00;99.90;;;;;;6345157;22;20035;-81
2023/02/25 14:22:19;;;;;;;7.55;2.30;;;4.50;99.90;;;;;;6341342;22;20014;-83
2023/02/25 14:25:27;;;;;;;5.90;2.20;;;4.90;99.90;;;;;;6322694;22;20037;-85
2023/02/25 14:29:06;;;;;;;6.10;1.95;;;5.00;99.90;;;;;;6323159;22;20023;-87
2023/02/25 14:36:37;;;;;;;3.20;1.63;;;5.10;99.90;;;;;;6288449;22;20033;-86
2023/02/25 14:40:28;;;;;;;4.78;2.30;;;5.20;99.90;;;;;;6282623;22;20472;-87
2023/02/25 14:48:25;;;;;;;;;;;;;;;;;;;;;
2023/02/25 14:52:03;;;;;;;6.47;2.30;;;4.90;99.90;;;;;;6294466;22;20023;-87
2023/02/25 14:55:14;;;;;;;6.93;1.85;;;6.20;99.90;;;;;;6268688;22;20709;-85
2023/02/25 15:04:11;;;;;;;7.68;2.47;;;6.10;99.90;;;;;;6130551;22;20025;-88
2023/02/25 15:11:42;;;;;;;4.40;2.22;;;4.80;99.90;;;;;;6194648;23;20013;-87
2023/02/25 15:15:23;;;;;;;7.47;2.22;;;4.80;99.90;;;;;;6195982;23;20033;-84
2023/02/25 15:18:43;;;;;;;6.22;2.40;;;5.90;99.90;;;;;;6167197;23;20044;-86
2023/02/25 15:22:07;;;;;;;7.75;2.13;;;6.50;99.90;;;;;;6156384;23;20029;-88
2023/02/25 15:25:36;;;;;;;7.97;2.25;;;6.40;99.90;;;;;;6153800;23;20136;-87
2023/02/25 15:28:29;;;;;;;5.43;1.70;;;6.40;99.90;;;;;;6047813;23;20041;-85
2023/02/25 15:31:29;;;;;;;7.03;2.03;;;6.60;99.90;;;;;;6077268;23;20042;-84
2023/02/25 15:34:20;;;;;;;3.83;1.52;;;6.70;99.90;;;;;;6146122;23;20029;-86
2023/02/25 15:37:30;;;;;;;5.40;1.88;;;7.10;99.90;;;;;;6167689;23;20022;-84
2023/02/25 15:40:20;;;;;;;5.45;1.75;;;7.90;99.90;;;;;;6175321;22;20017;-85
2023/02/25 15:43:14;;;;;;;5.53;2.03;;;7.70;98.70;;;;;;6150783;23;20048;-85
2023/02/25 15:46:07;;;;;;;6.90;1.65;;;6.90;94.60;;;;;;6150838;23;20027;-85
2023/02/25 15:49:06;;;;;;;5.45;2.08;;;6.10;96.10;;;;;;6175721;22;20049;-85
2023/02/25 15:51:58;;;;;;;9.25;1.90;;;5.70;99.90;;;;;;6172314;22;20028;-85
2023/02/25 15:54:48;;;;;;;8.82;2.25;;;5.30;99.90;;;;;;6167190;23;20036;-87
2023/02/25 15:57:37;;;;;;;7.53;2.13;;;4.90;99.90;;;;;;6160650;22;20025;-86
2023/02/25 16:00:54;;;;;;;6.43;2.10;;;4.70;99.90;;;;;;6153746;23;20037;-88
2023/02/25 16:03:42;;;;;;;12.95;4.40;;;4.40;99.90;;;;;;6153732;23;20026;-88
2023/02/25 16:06:39;;;;;;;18.00;3.95;;;4.30;99.90;;;;;;6154447;23;20021;-86
2023/02/25 16:09:26;;;;;;;8.98;2.95;;;4.20;99.90;;;;;;6154763;23;20033;-86
2023/02/25 16:12:15;;;;;;;13.13;2.65;;;4.20;99.90;;;;;;6153243;22;20421;-87
2023/02/25 16:15:03;;;;;;;4.85;2.13;;;4.10;99.90;;;;;;6153720;23;20031;-87
2023/02/25 16:17:54;;;;;;;9.57;2.90;;;4.00;99.90;;;;;;6134622;23;20025;-85
2023/02/25 16:20:50;;;;;;;8.15;3.00;;;4.00;99.90;;;;;;6157623;23;20083;-86
2023/02/25 16:23:39;;;;;;;5.63;2.35;;;4.00;99.90;;;;;;6142558;23;20040;-86
2023/02/25 16:26:51;;;;;;;9.68;2.15;;;4.00;99.90;;;;;;6157023;23;20025;-85
2023/02/25 16:30:20;;;;;;;12.60;2.42;;;4.00;99.90;;;;;;6159798;23;20025;-88
2023/02/25 16:33:22;;;;;;;5.03;2.13;;;3.90;99.90;;;;;;6131207;23;20120;-84
2023/02/25 16:36:27;;;;;;;13.02;2.20;;;3.80;99.90;;;;;;6155561;23;20026;-85
2023/02/25 16:39:22;;;;;;;6.65;2.08;;;3.80;99.90;;;;;;6160103;23;20021;-85
2023/02/25 16:42:16;;;;;;;11.55;3.28;;;3.70;99.90;;;;;;6166134;22;20055;-84
2023/02/25 16:45:04;;;;;;;7.18;2.40;;;3.70;99.90;;;;;;6132918;22;20041;-84
2023/02/25 16:48:04;;;;;;;11.38;2.70;;;3.60;99.90;;;;;;6151526;23;20030;-84
2023/02/25 16:50:54;;;;;;;12.15;3.25;;;3.50;99.90;;;;;;6153879;23;20331;-85
2023/02/25 16:53:46;;;;;;;9.40;2.85;;;3.40;99.90;;;;;;6151518;23;20025;-84
2023/02/25 16:56:35;;;;;;;8.82;2.42;;;3.30;99.90;;;;;;6151323;23;20041;-85
2023/02/25 16:59:24;;;;;;;9.32;2.45;;;3.20;99.90;;;;;;6152227;23;20053;-83
2023/02/25 17:02:14;;;;;;;6.18;2.33;;;3.10;99.90;;;;;;6151250;23;20033;-83
2023/02/25 17:05:02;;;;;;;11.02;3.28;;;2.90;99.90;;;;;;6151692;23;20108;-85
2023/02/25 17:07:59;;;;;;;14.73;2.75;;;2.80;99.90;;;;;;6129962;23;20034;-85
2023/02/25 17:10:49;;;;;;;9.65;2.97;;;2.60;99.90;;;;;;6130603;23;20503;-84
2023/02/25 17:13:42;;;;;;;8.75;2.85;;;2.60;99.90;;;;;;6150278;23;20044;-84
2023/02/25 17:16:42;;;;;;;10.05;2.85;;;2.50;99.90;;;;;;6151229;23;20029;-85
2023/02/25 17:19:30;;;;;;;9.27;2.97;;;2.50;99.90;;;;;;6153257;22;20026;-84
2023/02/25 17:22:21;;;;;;;9.13;2.97;;;2.50;99.90;;;;;;6152749;22;20079;-85
2023/02/25 17:25:16;;;;;;;10.13;3.25;;;2.40;99.90;;;;;;6135146;23;20435;-86
2023/02/25 17:28:06;;;;;;;18.17;3.22;;;2.30;99.90;;;;;;6152764;22;20026;-85
2023/02/25 17:31:08;;;;;;;9.98;3.08;;;2.20;99.90;;;;;;6167602;22;20034;-84
2023/02/25 17:33:57;;;;;;;12.95;3.35;;;2.00;99.90;;;;;;6152572;22;20369;-86
2023/02/25 17:36:46;;;;;;;14.32;3.42;;;1.90;1.00;;;;;;6130531;23;20032;-85
2023/02/25 17:39:34;;;;;;;8.85;3.45;;;1.90;1.00;;;;;;6151761;23;20360;-86